Time;durP1;ratioP1;P1;durP2;ratioP2;P2;SDS_P1;SDS_P2;PMS_P1;PMS_P2;Temp;Humidity;BMP_temperature;BMP_pressure;BME280_temperature;BME280_humidity;BME280_pressure;Samples;Min_cycle;Max_cycle;Signal;HPM_P1;HPM_P2
2021/12/03 00:01:26;;;;;;;;;;;23.60;58.50;;;;;;5074774;28;19932;-57
2021/12/03 00:03:54;;;;;;;;;;;23.60;58.50;;;;;;5074709;28;19925;-55
2021/12/03 00:06:21;;;;;;;;;;;23.60;58.50;;;;;;5074851;28;19987;-54
2021/12/03 00:08:49;;;;;;;;;;;23.60;58.50;;;;;;5074866;28;20302;-56
2021/12/03 00:11:16;;;;;;;;;;;23.60;58.50;;;;;;5055742;28;19932;-55
2021/12/03 00:13:43;;;;;;;;;;;23.60;58.50;;;;;;5074547;28;19924;-55
2021/12/03 00:16:11;;;;;;;;;;;23.60;58.50;;;;;;5074472;28;20376;-53
2021/12/03 00:18:38;;;;;;;;;;;23.50;58.40;;;;;;5074439;28;20437;-54
2021/12/03 00:21:08;;;;;;;;;;;23.50;58.40;;;;;;5074680;28;19963;-51
2021/12/03 00:23:35;;;;;;;;;;;23.50;59.00;;;;;;5074467;28;19928;-52
2021/12/03 00:26:03;;;;;;;;;;;23.50;58.40;;;;;;5055483;28;19924;-52
2021/12/03 00:28:31;;;;;;;;;;;23.60;58.40;;;;;;5074480;28;19934;-57
2021/12/03 00:30:58;;;;;;;;;;;23.50;58.40;;;;;;5056519;28;19931;-54
2021/12/03 00:33:27;;;;;;;;;;;23.50;58.30;;;;;;5074161;28;20380;-51
2021/12/03 00:35:54;;;;;;;;;;;23.50;58.90;;;;;;5056318;28;19931;-56
2021/12/03 00:38:21;;;;;;;;;;;23.50;58.40;;;;;;5056715;28;19924;-49
2021/12/03 00:40:49;;;;;;;;;;;23.50;58.40;;;;;;5056725;28;19924;-53
2021/12/03 00:43:16;;;;;;;;;;;23.50;58.40;;;;;;5073356;28;19931;-56
2021/12/03 00:45:45;;;;;;;;;;;23.50;58.40;;;;;;5074843;28;19928;-55
2021/12/03 00:48:12;;;;;;;;;;;23.50;58.40;;;;;;5074198;28;19928;-56
2021/12/03 00:50:39;;;;;;;;;;;23.50;58.40;;;;;;5073908;28;19931;-53
2021/12/03 00:53:06;;;;;;;;;;;23.50;58.30;;;;;;5073698;28;19928;-57
2021/12/03 00:55:33;;;;;;;;;;;23.50;58.30;;;;;;5074131;28;19933;-49
2021/12/03 00:58:00;;;;;;;;;;;23.50;58.40;;;;;;5072518;28;19924;-48
2021/12/03 01:00:29;;;;;;;;;;;23.50;58.40;;;;;;5074143;28;20261;-54
2021/12/03 01:02:57;;;;;;;;;;;23.50;58.30;;;;;;5073300;28;19932;-57
2021/12/03 01:05:25;;;;;;;;;;;23.50;58.30;;;;;;5073771;28;19924;-51
2021/12/03 01:07:52;;;;;;;;;;;23.50;58.40;;;;;;5073984;28;20268;-50
2021/12/03 01:10:20;;;;;;;;;;;23.50;58.40;;;;;;5039910;28;19925;-50
2021/12/03 01:12:48;;;;;;;;;;;23.50;58.40;;;;;;5055077;28;20396;-55
2021/12/03 01:15:20;;;;;;;;;;;23.50;58.40;;;;;;5073960;28;20213;-50
2021/12/03 01:17:47;;;;;;;;;;;23.50;58.40;;;;;;5056291;28;19924;-53
2021/12/03 01:20:14;;;;;;;;;;;23.50;58.40;;;;;;5073600;28;20026;-48
2021/12/03 01:22:44;;;;;;;;;;;23.50;58.40;;;;;;5073725;28;20334;-50
2021/12/03 01:25:12;;;;;;;;;;;23.50;58.40;;;;;;5056117;28;19932;-51
2021/12/03 01:27:39;;;;;;;;;;;23.50;58.40;;;;;;5072781;28;19924;-56
2021/12/03 01:30:08;;;;;;;;;;;23.50;58.40;;;;;;5056063;28;19924;-53
2021/12/03 01:32:36;;;;;;;;;;;23.40;58.30;;;;;;5073955;28;19928;-51
2021/12/03 01:35:03;;;;;;;;;;;23.40;58.90;;;;;;5073763;28;19924;-53
2021/12/03 01:37:30;;;;;;;;;;;23.40;58.40;;;;;;5073753;28;20007;-55
2021/12/03 01:39:57;;;;;;;;;;;23.40;58.40;;;;;;5073432;28;19925;-55
2021/12/03 01:42:24;;;;;;;;;;;23.40;58.40;;;;;;5072327;28;19971;-51
2021/12/03 01:44:51;;;;;;;;;;;23.40;58.40;;;;;;5055660;28;19955;-51
2021/12/03 01:47:18;;;;;;;;;;;23.40;58.40;;;;;;5073247;28;20368;-50
2021/12/03 01:49:45;;;;;;;;;;;23.40;58.50;;;;;;5073336;28;19969;-56
2021/12/03 01:52:12;;;;;;;;;;;23.40;58.50;;;;;;5055574;28;19928;-54
2021/12/03 01:54:39;;;;;;;;;;;23.40;58.50;;;;;;5073525;28;20330;-56
2021/12/03 01:57:06;;;;;;;;;;;23.30;58.40;;;;;;5071840;28;19928;-57
2021/12/03 01:59:33;;;;;;;;;;;23.30;58.50;;;;;;5073602;28;19933;-50
2021/12/03 02:02:00;;;;;;;;;;;23.30;58.50;;;;;;5073543;28;19932;-49
2021/12/03 02:04:28;;;;;;;;;;;23.30;58.60;;;;;;5073104;28;20368;-56
2021/12/03 02:06:55;;;;;;;;;;;23.30;58.60;;;;;;5073188;28;19970;-52
2021/12/03 02:09:22;;;;;;;;;;;23.30;58.60;;;;;;5073409;28;19932;-56
2021/12/03 02:11:49;;;;;;;;;;;23.30;58.60;;;;;;5073129;28;19974;-49
2021/12/03 02:14:16;;;;;;;;;;;23.30;58.60;;;;;;5072736;28;20330;-48
2021/12/03 02:16:45;;;;;;;;;;;23.30;58.60;;;;;;5076789;28;20380;-54
2021/12/03 02:19:13;;;;;;;;;;;23.30;58.60;;;;;;5076741;28;19924;-56
2021/12/03 02:21:40;;;;;;;;;;;23.30;58.60;;;;;;5076984;28;19924;-51
2021/12/03 02:24:07;;;;;;;;;;;23.30;58.60;;;;;;5059039;28;19974;-49
2021/12/03 02:26:34;;;;;;;;;;;23.30;58.60;;;;;;5076580;28;19931;-53
2021/12/03 02:29:02;;;;;;;;;;;23.30;58.60;;;;;;5075783;28;19974;-54
2021/12/03 02:31:29;;;;;;;;;;;23.20;58.60;;;;;;5076839;28;19978;-57
2021/12/03 02:33:57;;;;;;;;;;;23.30;58.70;;;;;;5076662;28;19931;-48
2021/12/03 02:36:24;;;;;;;;;;;23.30;58.70;;;;;;5076464;28;19928;-57
2021/12/03 02:38:51;;;;;;;;;;;23.20;58.60;;;;;;5076390;28;19971;-50
2021/12/03 02:41:18;;;;;;;;;;;23.30;58.60;;;;;;5076625;28;19928;-54
2021/12/03 02:43:45;;;;;;;;;;;23.20;58.60;;;;;;5075060;28;19931;-51
2021/12/03 02:46:12;;;;;;;;;;;23.20;58.60;;;;;;5076234;28;19932;-49
2021/12/03 02:48:40;;;;;;;;;;;23.20;58.60;;;;;;5076123;28;19925;-50
2021/12/03 02:51:07;;;;;;;;;;;23.20;58.60;;;;;;5076158;28;20438;-55
2021/12/03 02:53:35;;;;;;;;;;;23.20;58.60;;;;;;5075936;28;19929;-53
2021/12/03 02:56:03;;;;;;;;;;;23.20;58.60;;;;;;5076355;28;19924;-56
2021/12/03 02:58:30;;;;;;;;;;;23.20;58.60;;;;;;5074980;28;20392;-55
2021/12/03 03:00:58;;;;;;;;;;;23.20;58.60;;;;;;5076279;28;19925;-57
2021/12/03 03:03:25;;;;;;;;;;;23.20;58.60;;;;;;5075950;28;19924;-57
2021/12/03 03:05:53;;;;;;;;;;;23.20;58.70;;;;;;5076125;28;20334;-53
2021/12/03 03:08:21;;;;;;;;;;;23.20;58.60;;;;;;5076058;28;19924;-51
2021/12/03 03:10:50;;;;;;;;;;;23.20;58.60;;;;;;5075788;28;20405;-55
2021/12/03 03:13:17;;;;;;;;;;;23.20;59.20;;;;;;5074999;28;19931;-54
2021/12/03 03:15:44;;;;;;;;;;;23.20;58.70;;;;;;5075694;28;19924;-53
2021/12/03 03:18:13;;;;;;;;;;;23.20;58.60;;;;;;5075664;28;19931;-56
2021/12/03 03:20:40;;;;;;;;;;;23.20;58.60;;;;;;5076772;28;19924;-57
2021/12/03 03:23:08;;;;;;;;;;;23.20;59.20;;;;;;5075439;28;19924;-57
2021/12/03 03:25:36;;;;;;;;;;;23.20;58.70;;;;;;5058073;28;19947;-51
2021/12/03 03:28:03;;;;;;;;;;;23.10;58.60;;;;;;5074706;28;19928;-58
2021/12/03 03:30:30;;;;;;;;;;;23.20;58.70;;;;;;5075394;28;19925;-51
2021/12/03 03:32:57;;;;;;;;;;;23.10;58.60;;;;;;5075703;28;20280;-52
2021/12/03 03:35:24;;;;;;;;;;;23.10;59.20;;;;;;5057870;28;19932;-50
2021/12/03 03:37:51;;;;;;;;;;;23.10;58.60;;;;;;5075250;28;19924;-57
2021/12/03 03:40:19;;;;;;;;;;;23.10;58.60;;;;;;5058395;28;19931;-48
2021/12/03 03:42:47;;;;;;;;;;;23.10;58.60;;;;;;5057518;28;19929;-49
2021/12/03 03:45:16;;;;;;;;;;;23.10;58.60;;;;;;5074621;28;19924;-52
2021/12/03 03:47:43;;;;;;;;;;;23.10;58.60;;;;;;5075078;28;19924;-50
2021/12/03 03:50:12;;;;;;;;;;;23.10;58.60;;;;;;5075319;28;19990;-53
2021/12/03 03:52:39;;;;;;;;;;;23.10;58.60;;;;;;5075107;28;19929;-51
2021/12/03 03:55:07;;;;;;;;;;;23.10;58.60;;;;;;5075219;28;19928;-55
2021/12/03 03:57:34;;;;;;;;;;;23.10;58.60;;;;;;5053890;28;20379;-55
2021/12/03 04:00:03;;;;;;;;;;;23.10;58.60;;;;;;5053730;28;19932;-53
2021/12/03 04:02:30;;;;;;;;;;;23.10;58.60;;;;;;5054802;28;20522;-58
2021/12/03 04:04:57;;;;;;;;;;;23.10;58.60;;;;;;5055060;28;19925;-49
2021/12/03 04:07:24;;;;;;;;;;;23.10;58.60;;;;;;5055009;28;19948;-54
2021/12/03 04:09:51;;;;;;;;;;;23.10;58.60;;;;;;5054604;28;19925;-58
2021/12/03 04:12:18;;;;;;;;;;;23.10;58.60;;;;;;5054589;28;19971;-51
2021/12/03 04:14:45;;;;;;;;;;;23.10;58.60;;;;;;5053783;28;19925;-57
2021/12/03 04:17:12;;;;;;;;;;;23.10;58.60;;;;;;5054810;28;19924;-56
2021/12/03 04:19:39;;;;;;;;;;;23.10;58.60;;;;;;5054458;28;19932;-50
2021/12/03 04:22:06;;;;;;;;;;;23.10;58.60;;;;;;5054737;28;20335;-56
2021/12/03 04:24:33;;;;;;;;;;;23.10;58.60;;;;;;5054202;28;19929;-52
2021/12/03 04:27:00;;;;;;;;;;;23.10;58.60;;;;;;5054320;28;20384;-51
2021/12/03 04:29:27;;;;;;;;;;;23.10;58.60;;;;;;5053139;28;20411;-49
2021/12/03 04:31:54;;;;;;;;;;;23.10;58.60;;;;;;5054281;28;19932;-51
2021/12/03 04:34:21;;;;;;;;;;;23.10;58.60;;;;;;5054420;28;20296;-58
2021/12/03 04:36:48;;;;;;;;;;;23.10;58.60;;;;;;5054184;28;19932;-50
2021/12/03 04:39:15;;;;;;;;;;;23.10;58.60;;;;;;5053218;28;20426;-47
2021/12/03 04:41:43;;;;;;;;;;;23.10;58.60;;;;;;5054100;28;19924;-51
2021/12/03 04:44:10;;;;;;;;;;;23.10;58.60;;;;;;5053660;28;19925;-50
2021/12/03 04:46:37;;;;;;;;;;;23.10;58.60;;;;;;5054261;28;19952;-54
2021/12/03 04:49:04;;;;;;;;;;;23.10;58.60;;;;;;5054229;28;19947;-59
2021/12/03 04:51:31;;;;;;;;;;;23.00;58.50;;;;;;5054229;28;19928;-52
2021/12/03 04:53:58;;;;;;;;;;;23.10;58.60;;;;;;5054083;28;19994;-48
2021/12/03 04:56:25;;;;;;;;;;;23.00;58.50;;;;;;5053840;28;19931;-51
2021/12/03 04:58:52;;;;;;;;;;;23.00;58.50;;;;;;5069696;28;20003;-58
2021/12/03 05:01:19;;;;;;;;;;;23.00;58.50;;;;;;5074216;28;19990;-55
2021/12/03 05:03:46;;;;;;;;;;;23.00;58.50;;;;;;5073922;28;19928;-49
2021/12/03 05:06:27;;;;;;;;;;;23.00;58.50;;;;;;5074040;28;19947;-50
2021/12/03 05:08:54;;;;;;;;;;;23.00;58.50;;;;;;5073974;28;20287;-48
2021/12/03 05:11:21;;;;;;;;;;;23.00;59.10;;;;;;5073987;28;19970;-53
2021/12/03 05:13:48;;;;;;;;;;;23.00;58.50;;;;;;5073979;28;19974;-54
2021/12/03 05:16:16;;;;;;;;;;;23.00;58.60;;;;;;5073635;28;19924;-54
2021/12/03 05:18:45;;;;;;;;;;;23.00;58.50;;;;;;5073890;28;19964;-56
2021/12/03 05:21:12;;;;;;;;;;;23.00;58.50;;;;;;5073592;28;20384;-57
2021/12/03 05:23:39;;;;;;;;;;;23.00;58.50;;;;;;5073323;28;19924;-54
2021/12/03 05:26:06;;;;;;;;;;;23.00;58.50;;;;;;5073843;28;20287;-49
2021/12/03 05:28:33;;;;;;;;;;;23.00;58.50;;;;;;5073771;28;20269;-51
2021/12/03 05:31:00;;;;;;;;;;;23.00;58.50;;;;;;5072693;28;19967;-49
2021/12/03 05:33:27;;;;;;;;;;;23.00;58.50;;;;;;5073463;28;19975;-56
2021/12/03 05:35:54;;;;;;;;;;;23.00;58.50;;;;;;5073533;28;19928;-56
2021/12/03 05:38:21;;;;;;;;;;;23.00;58.50;;;;;;5073372;28;19974;-54
2021/12/03 05:40:49;;;;;;;;;;;23.00;58.50;;;;;;5055812;28;20011;-51
2021/12/03 05:43:16;;;;;;;;;;;23.00;58.50;;;;;;5055918;28;20391;-50
2021/12/03 05:45:44;;;;;;;;;;;23.00;58.50;;;;;;5072296;28;19924;-55
2021/12/03 05:48:12;;;;;;;;;;;23.00;58.50;;;;;;5073336;28;19928;-54
2021/12/03 05:50:39;;;;;;;;;;;22.90;58.40;;;;;;5075924;28;19924;-54
2021/12/03 05:53:06;;;;;;;;;;;23.00;58.50;;;;;;5077152;28;19950;-55
2021/12/03 05:55:33;;;;;;;;;;;23.00;58.40;;;;;;5077484;28;20038;-57
2021/12/03 05:58:00;;;;;;;;;;;23.00;58.40;;;;;;5076982;28;19925;-57
2021/12/03 06:00:32;;;;;;;;;;;23.00;58.40;;;;;;5076490;28;19951;-51
2021/12/03 06:02:59;;;;;;;;;;;23.00;58.40;;;;;;5077032;28;19924;-57
2021/12/03 06:05:28;;;;;;;;;;;23.00;58.40;;;;;;5076877;28;19928;-56
2021/12/03 06:07:55;;;;;;;;;;;23.00;58.40;;;;;;5076933;28;19932;-55
2021/12/03 06:10:23;;;;;;;;;;;23.00;58.40;;;;;;5077097;28;19931;-51
2021/12/03 06:12:50;;;;;;;;;;;23.00;58.40;;;;;;5076811;28;19925;-55
2021/12/03 06:15:17;;;;;;;;;;;23.00;58.30;;;;;;5076766;28;20297;-58
2021/12/03 06:17:44;;;;;;;;;;;23.00;58.40;;;;;;5076759;28;20372;-56
2021/12/03 06:20:12;;;;;;;;;;;23.00;58.30;;;;;;5076667;28;20368;-57
2021/12/03 06:22:39;;;;;;;;;;;23.00;58.30;;;;;;5077320;28;19931;-52
2021/12/03 06:25:08;;;;;;;;;;;23.00;58.30;;;;;;5076875;28;20342;-53
2021/12/03 06:27:36;;;;;;;;;;;23.00;58.40;;;;;;5076535;28;19939;-55
2021/12/03 06:30:06;;;;;;;;;;;23.00;58.30;;;;;;5075662;28;19928;-55
2021/12/03 06:32:33;;;;;;;;;;;23.00;58.30;;;;;;5076401;28;19928;-56
2021/12/03 06:35:00;;;;;;;;;;;23.00;58.30;;;;;;5076516;28;19925;-49
2021/12/03 06:37:27;;;;;;;;;;;23.00;58.30;;;;;;5076319;28;19973;-56
2021/12/03 06:39:55;;;;;;;;;;;23.00;58.30;;;;;;5076612;28;19924;-55
2021/12/03 06:42:22;;;;;;;;;;;23.00;58.30;;;;;;5076512;28;19982;-55
2021/12/03 06:44:50;;;;;;;;;;;23.00;58.20;;;;;;5077114;28;19924;-58
2021/12/03 06:47:17;;;;;;;;;;;23.00;58.20;;;;;;5075869;28;19928;-57
2021/12/03 06:49:44;;;;;;;;;;;23.00;58.20;;;;;;5076366;28;19932;-56
2021/12/03 06:52:15;;;;;;;;;;;23.00;58.20;;;;;;5076556;28;19932;-54
2021/12/03 06:54:43;;;;;;;;;;;23.00;58.20;;;;;;5076243;28;20402;-53
2021/12/03 06:57:10;;;;;;;;;;;23.00;58.20;;;;;;5076035;28;19948;-55
2021/12/03 06:59:38;;;;;;;;;;;23.00;58.20;;;;;;5075991;28;19931;-51
2021/12/03 07:02:05;;;;;;;;;;;23.00;58.20;;;;;;5074232;28;19951;-51
2021/12/03 07:04:32;;;;;;;;;;;23.00;58.10;;;;;;5075880;28;19924;-58
2021/12/03 07:06:59;;;;;;;;;;;23.00;58.10;;;;;;5076160;28;20280;-50
2021/12/03 07:09:26;;;;;;;;;;;23.10;58.20;;;;;;5075728;28;19928;-56
2021/12/03 07:11:53;;;;;;;;;;;23.00;58.10;;;;;;5075790;28;19925;-52
2021/12/03 07:14:20;;;;;;;;;;;23.10;58.20;;;;;;5075904;28;19928;-53
2021/12/03 07:16:47;;;;;;;;;;;23.10;58.10;;;;;;5057084;28;19928;-56
2021/12/03 07:19:14;;;;;;;;;;;23.10;58.10;;;;;;5075587;28;19931;-58
2021/12/03 07:21:41;;;;;;;;;;;23.10;58.10;;;;;;5075503;28;19932;-56
2021/12/03 07:24:08;;;;;;;;;;;23.10;58.10;;;;;;5058127;28;19928;-57
2021/12/03 07:26:35;;;;;;;;;;;23.10;58.10;;;;;;5075738;28;19931;-52
2021/12/03 07:29:02;;;;;;;;;;;23.10;58.10;;;;;;5075696;28;20334;-56
2021/12/03 07:31:30;;;;;;;;;;;23.10;58.00;;;;;;5057247;28;19978;-56
2021/12/03 07:33:57;;;;;;;;;;;23.10;58.00;;;;;;5075072;28;19935;-52
2021/12/03 07:36:24;;;;;;;;;;;23.10;58.00;;;;;;5075473;28;19925;-50
2021/12/03 07:38:51;;;;;;;;;;;23.10;57.90;;;;;;5075213;28;19924;-56
2021/12/03 07:41:18;;;;;;;;;;;23.10;57.90;;;;;;5075152;28;19924;-56
2021/12/03 07:43:45;;;;;;;;;;;23.10;57.90;;;;;;5075347;28;19925;-52
2021/12/03 07:46:15;;;;;;;;;;;23.20;58.50;;;;;;5074579;28;19970;-54
2021/12/03 07:48:46;;;;;;;;;;;23.20;57.90;;;;;;5075136;28;19924;-52
2021/12/03 07:51:15;;;;;;;;;;;23.20;57.80;;;;;;5074517;28;19924;-52
2021/12/03 07:53:43;;;;;;;;;;;23.20;57.80;;;;;;5074582;28;19957;-54
2021/12/03 07:56:10;;;;;;;;;;;23.20;57.70;;;;;;5074830;28;19928;-54
2021/12/03 07:58:37;;;;;;;;;;;23.20;57.70;;;;;;5074625;28;19928;-51
2021/12/03 08:01:04;;;;;;;;;;;23.20;57.70;;;;;;5073992;28;20338;-51
2021/12/03 08:03:32;;;;;;;;;;;23.20;57.70;;;;;;5074711;28;20471;-52
2021/12/03 08:06:04;;;;;;;;;;;23.30;57.70;;;;;;5075360;28;19924;-52
2021/12/03 08:08:32;;;;;;;;;;;23.30;57.70;;;;;;5057002;28;20457;-54
2021/12/03 08:10:59;;;;;;;;;;;23.30;57.60;;;;;;5074493;28;20003;-57
2021/12/03 08:13:26;;;;;;;;;;;23.30;57.60;;;;;;5074639;28;20326;-52
2021/12/03 08:15:53;;;;;;;;;;;23.30;57.60;;;;;;5074670;28;20264;-51
2021/12/03 08:18:20;;;;;;;;;;;23.30;57.50;;;;;;5074055;28;19977;-50
2021/12/03 08:20:48;;;;;;;;;;;23.30;57.50;;;;;;5074699;28;19994;-56
2021/12/03 08:23:15;;;;;;;;;;;23.30;57.50;;;;;;5074481;28;20291;-50
2021/12/03 08:25:42;;;;;;;;;;;23.30;57.40;;;;;;5056914;28;19928;-58
2021/12/03 08:28:09;;;;;;;;;;;23.40;57.40;;;;;;5074082;28;20449;-54
2021/12/03 08:30:36;;;;;;;;;;;23.40;57.30;;;;;;5074443;28;19929;-51
2021/12/03 08:33:03;;;;;;;;;;;23.40;57.30;;;;;;5073253;28;19924;-56
2021/12/03 08:35:30;;;;;;;;;;;23.40;57.30;;;;;;5074199;28;19990;-57
2021/12/03 08:37:58;;;;;;;;;;;23.40;57.30;;;;;;5074109;28;19928;-54
2021/12/03 08:40:25;;;;;;;;;;;23.40;57.20;;;;;;5074386;28;19924;-58
2021/12/03 08:42:53;;;;;;;;;;;23.40;57.20;;;;;;5056412;28;19924;-50
2021/12/03 08:45:21;;;;;;;;;;;23.40;57.10;;;;;;5073969;28;19977;-53
2021/12/03 08:47:57;;;;;;;;;;;23.40;57.10;;;;;;5072857;28;19928;-50
2021/12/03 08:50:30;;;;;;;;;;;23.40;57.10;;;;;;5073880;28;19924;-53
2021/12/03 08:55:39;;;;;;;;;;;23.40;57.00;;;;;;5073963;28;19924;-53
2021/12/03 08:58:06;;;;;;;;;;;23.40;56.90;;;;;;5073860;28;20346;-58
2021/12/03 09:00:34;;;;;;;;;;;23.50;57.00;;;;;;5073826;28;19978;-50
2021/12/03 09:03:01;;;;;;;;;;;23.50;57.00;;;;;;5072641;28;19925;-56
2021/12/03 09:05:31;;;;;;;;;;;23.50;56.90;;;;;;5073913;28;19932;-52
2021/12/03 09:07:58;;;;;;;;;;;23.50;56.90;;;;;;5073978;28;19928;-56
2021/12/03 09:10:36;;;;;;;;;;;23.50;56.80;;;;;;5057544;28;19924;-57
2021/12/03 09:13:04;;;;;;;;;;;23.50;56.70;;;;;;5073515;28;20011;-52
2021/12/03 09:15:57;;;;;;;;;;;23.50;56.70;;;;;;5073786;28;20295;-53
2021/12/03 09:21:27;;;;;;;;;;;23.60;56.70;;;;;;5073357;28;19928;-55
2021/12/03 09:24:09;;;;;;;;;;;23.60;56.70;;;;;;5073996;28;19978;-56
2021/12/03 09:26:39;;;;;;;;;;;23.60;56.70;;;;;;5080260;28;20379;-58
2021/12/03 09:29:09;;;;;;;;;;;23.60;56.70;;;;;;5080173;28;20022;-56
2021/12/03 09:31:40;;;;;;;;;;;23.60;56.80;;;;;;5080368;28;20020;-53
2021/12/03 09:34:10;;;;;;;;;;;23.60;57.40;;;;;;5079425;28;19925;-56
2021/12/03 09:36:40;;;;;;;;;;;23.60;56.80;;;;;;5080427;28;19990;-51
2021/12/03 09:39:16;;;;;;;;;;;23.60;56.80;;;;;;5080197;28;19978;-58
2021/12/03 09:41:43;;;;;;;;;;;23.60;56.80;;;;;;5080436;28;19924;-57
2021/12/03 09:44:10;;;;;;;;;;;23.60;56.70;;;;;;5080066;28;19924;-56
2021/12/03 09:46:37;;;;;;;;;;;23.60;56.70;;;;;;5080093;28;19928;-52
2021/12/03 09:51:39;;;;;;;;;;;23.70;56.80;;;;;;5079945;28;19982;-54
2021/12/03 09:56:40;;;;;;;;;;;23.70;56.80;;;;;;5079978;28;19925;-57
2021/12/03 10:12:43;;;;;;;;;;;23.70;56.80;;;;;;5080176;28;20319;-57
2021/12/03 10:17:58;;;;;;;;;;;23.70;56.80;;;;;;5078965;28;19925;-55
2021/12/03 10:34:08;;;;;;;;;;;23.80;56.90;;;;;;5078775;28;20407;-55
2021/12/03 10:44:53;;;;;;;;;;;23.80;56.90;;;;;;5014845;28;19925;-52
2021/12/03 10:47:40;;;;;;;;;;;23.80;56.90;;;;;;5014485;28;20452;-50
2021/12/03 11:17:27;;;;;;;;;;;23.90;56.70;;;;;;5028294;28;19971;-47
2021/12/03 11:44:17;;;;;;;;;;;23.90;57.10;;;;;;5035646;28;20347;-59
2021/12/03 11:50:32;;;;;;;;;;;23.90;57.10;;;;;;5034210;28;20036;-59
2021/12/03 12:34:54;;;;;;;;;;;24.00;56.80;;;;;;5073369;28;19932;-56
2021/12/03 12:38:25;;;;;;;;;;;24.10;56.90;;;;;;5073815;28;19928;-58
2021/12/03 12:40:35;;;;;;;;;;;24.10;56.80;;;;;;5074150;28;19932;-56
2021/12/03 13:03:23;;;;;;;;;;;24.00;56.80;;;;;;5073898;28;19928;-53
2021/12/03 13:11:11;;;;;;;;;;;24.00;56.90;;;;;;5074041;28;19947;-58
2021/12/03 14:00:21;;;;;;;;;;;23.70;57.30;;;;;;5073303;28;19924;-59
2021/12/03 14:14:51;;;;;;;;;;;23.60;57.40;;;;;;5077543;28;19987;-59
2021/12/03 14:37:11;;;;;;;;;;;23.50;57.70;;;;;;5013485;28;19932;-55
2021/12/03 14:57:44;;;;;;;;;;;23.40;57.70;;;;;;5014226;28;19926;-55
2021/12/03 15:25:08;;;;;;;;;;;23.30;57.90;;;;;;5075642;28;20418;-57
2021/12/03 15:30:33;;;;;;;;;;;23.30;57.90;;;;;;5075573;28;19929;-56
2021/12/03 15:33:10;;;;;;;;;;;23.20;57.90;;;;;;5075655;28;19948;-60
2021/12/03 16:08:40;;;;;;;;;;;23.10;57.90;;;;;;4935753;29;19931;-59
2021/12/03 16:11:27;;;;;;;;;;;23.10;58.00;;;;;;4935720;29;20390;-58
2021/12/03 16:14:14;;;;;;;;;;;23.10;58.00;;;;;;4935606;29;19926;-58
2021/12/03 16:25:37;;;;;;;;;;;23.10;58.00;;;;;;4993209;28;19932;-59
2021/12/03 16:52:03;;;;;;;;;;;23.00;58.00;;;;;;5073290;28;19931;-60
2021/12/03 16:54:55;;;;;;;;;;;23.00;58.10;;;;;;5074362;28;20272;-57
2021/12/03 16:57:28;;;;;;;;;;;23.00;58.00;;;;;;5073734;28;19932;-56
2021/12/03 16:59:57;;;;;;;;;;;23.00;58.00;;;;;;5073952;28;19931;-59
2021/12/03 17:02:37;;;;;;;;;;;23.00;58.00;;;;;;5074158;28;20031;-59
2021/12/03 17:29:36;;;;;;;;;;;22.90;58.10;;;;;;5073863;28;19925;-58
2021/12/03 17:48:32;;;;;;;;;;;22.90;58.10;;;;;;5078354;28;19924;-59
2021/12/03 17:51:42;;;;;;;;;;;22.80;58.00;;;;;;5077771;28;20076;-51
2021/12/03 17:56:28;;;;;;;;;;;22.80;58.00;;;;;;5077659;28;19925;-58
2021/12/03 18:01:45;;;;;;;;;;;22.80;58.00;;;;;;5077215;28;19925;-57
2021/12/03 18:04:23;;;;;;;;;;;22.80;58.10;;;;;;5077027;28;19970;-59
2021/12/03 18:12:32;;;;;;;;;;;22.80;58.10;;;;;;5077259;28;19990;-53
2021/12/03 18:45:38;;;;;;;;;;;22.70;58.20;;;;;;5076453;28;19931;-58
2021/12/03 18:51:04;;;;;;;;;;;22.70;58.20;;;;;;5076620;28;19924;-52
2021/12/03 18:56:30;;;;;;;;;;;22.70;58.20;;;;;;5076788;28;19924;-58
2021/12/03 18:59:00;;;;;;;;;;;22.70;58.20;;;;;;5075209;28;20296;-56
2021/12/03 19:01:30;;;;;;;;;;;22.70;58.20;;;;;;5076388;28;19932;-58
2021/12/03 19:09:26;;;;;;;;;;;22.70;58.20;;;;;;5075131;28;19954;-59
2021/12/03 19:11:59;;;;;;;;;;;22.70;58.20;;;;;;5076430;28;19925;-53
2021/12/03 19:14:28;;;;;;;;;;;22.70;58.20;;;;;;5075863;28;19924;-58
2021/12/03 19:16:56;;;;;;;;;;;22.70;58.20;;;;;;5075809;28;19929;-57
2021/12/03 19:19:23;;;;;;;;;;;22.70;58.20;;;;;;5076087;28;19931;-58
2021/12/03 19:21:53;;;;;;;;;;;22.60;58.20;;;;;;5075736;28;19928;-56
2021/12/03 19:24:22;;;;;;;;;;;22.70;58.20;;;;;;5074854;28;19924;-54
2021/12/03 19:26:50;;;;;;;;;;;22.60;58.10;;;;;;5075943;28;20295;-59
2021/12/03 19:29:18;;;;;;;;;;;22.60;58.20;;;;;;5075825;28;19924;-55
2021/12/03 19:31:47;;;;;;;;;;;22.60;58.20;;;;;;5075452;28;19932;-58
2021/12/03 19:34:15;;;;;;;;;;;22.60;58.20;;;;;;5057646;28;19932;-57
2021/12/03 19:36:46;;;;;;;;;;;22.60;58.20;;;;;;5076220;28;19931;-57
2021/12/03 19:39:14;;;;;;;;;;;22.60;58.20;;;;;;5074868;28;19925;-59
2021/12/03 19:44:39;;;;;;;;;;;22.60;58.20;;;;;;5075352;28;20269;-57
2021/12/03 19:47:08;;;;;;;;;;;22.60;58.20;;;;;;5075273;28;19971;-59
2021/12/03 19:49:50;;;;;;;;;;;22.60;58.20;;;;;;5075469;28;19924;-57
2021/12/03 19:54:48;;;;;;;;;;;22.60;58.20;;;;;;5074216;28;19978;-50
2021/12/03 19:57:15;;;;;;;;;;;22.60;58.20;;;;;;5075046;28;19924;-58
2021/12/03 19:59:42;;;;;;;;;;;22.60;58.20;;;;;;5075310;28;20380;-56
2021/12/03 20:02:10;;;;;;;;;;;22.60;58.20;;;;;;5075252;28;20058;-56
2021/12/03 20:04:37;;;;;;;;;;;22.60;58.20;;;;;;5074764;28;19939;-58
2021/12/03 20:07:04;;;;;;;;;;;22.60;58.20;;;;;;5074833;28;19928;-56
2021/12/03 20:12:31;;;;;;;;;;;22.50;58.20;;;;;;5013295;28;20324;-52
2021/12/03 20:14:59;;;;;;;;;;;22.50;58.20;;;;;;5013041;28;19952;-55
2021/12/03 20:17:40;;;;;;;;;;;22.50;58.20;;;;;;5013150;28;19929;-58
2021/12/03 20:20:09;;;;;;;;;;;22.50;58.20;;;;;;5012966;28;20033;-58
2021/12/03 20:22:47;;;;;;;;;;;22.50;58.20;;;;;;5012674;28;19929;-56
2021/12/03 20:27:55;;;;;;;;;;;22.50;58.20;;;;;;5012806;28;19932;-59
2021/12/03 20:30:34;;;;;;;;;;;22.50;58.20;;;;;;5013164;28;19925;-59
2021/12/03 20:38:13;;;;;;;;;;;22.50;58.20;;;;;;5012619;28;20012;-59
2021/12/03 20:40:40;;;;;;;;;;;22.50;58.30;;;;;;5011574;28;20470;-58
2021/12/03 20:48:25;;;;;;;;;;;22.50;58.30;;;;;;5025835;28;19930;-57
2021/12/03 20:53:28;;;;;;;;;;;22.50;58.30;;;;;;5074073;28;19933;-59
2021/12/03 21:09:27;;;;;;;;;;;22.40;58.20;;;;;;5073872;28;20379;-57
2021/12/03 21:11:58;;;;;;;;;;;22.40;58.20;;;;;;5074101;28;20265;-59
2021/12/03 21:14:31;;;;;;;;;;;22.40;58.20;;;;;;5073699;28;19928;-60
2021/12/03 21:17:14;;;;;;;;;;;22.40;58.30;;;;;;5056372;28;19925;-54
2021/12/03 21:19:53;;;;;;;;;;;22.40;58.30;;;;;;5073478;28;19928;-58
2021/12/03 21:22:23;;;;;;;;;;;22.40;58.30;;;;;;5073642;28;19928;-51
2021/12/03 21:24:56;;;;;;;;;;;22.40;58.30;;;;;;5072745;28;19928;-56
2021/12/03 21:27:31;;;;;;;;;;;22.40;58.20;;;;;;5073667;28;19929;-58
2021/12/03 21:43:26;;;;;;;;;;;22.40;58.40;;;;;;5074394;28;19993;-59
2021/12/03 21:45:53;;;;;;;;;;;22.40;58.30;;;;;;5073793;28;19925;-55
2021/12/03 21:48:20;;;;;;;;;;;22.40;58.30;;;;;;5073449;28;20015;-59
2021/12/03 21:50:48;;;;;;;;;;;22.40;58.40;;;;;;5073733;28;19931;-59
2021/12/03 21:53:16;;;;;;;;;;;22.40;58.40;;;;;;5073120;28;20395;-59
2021/12/03 21:55:46;;;;;;;;;;;22.40;58.40;;;;;;5072461;28;19925;-54
2021/12/03 21:58:13;;;;;;;;;;;22.40;58.40;;;;;;5073132;28;19932;-59
2021/12/03 22:00:41;;;;;;;;;;;22.40;58.40;;;;;;5073323;28;19937;-53
2021/12/03 22:03:11;;;;;;;;;;;22.40;58.40;;;;;;5073468;28;19932;-59
2021/12/03 22:05:39;;;;;;;;;;;22.40;58.40;;;;;;5073560;28;19924;-58
2021/12/03 22:08:10;;;;;;;;;;;22.40;58.40;;;;;;5073247;28;19974;-58
2021/12/03 22:10:38;;;;;;;;;;;22.40;58.40;;;;;;5072452;28;19925;-57
2021/12/03 22:13:05;;;;;;;;;;;22.30;58.30;;;;;;5073140;28;19979;-58
2021/12/03 22:15:32;;;;;;;;;;;22.30;58.40;;;;;;5073189;28;19978;-59
2021/12/03 22:18:00;;;;;;;;;;;22.30;58.40;;;;;;5073151;28;19928;-58
2021/12/03 22:20:27;;;;;;;;;;;22.30;58.40;;;;;;5073433;28;19973;-58
2021/12/03 22:22:54;;;;;;;;;;;22.30;58.40;;;;;;5073268;28;19928;-57
2021/12/03 22:25:21;;;;;;;;;;;22.30;58.40;;;;;;5072437;28;19933;-55
2021/12/03 22:27:48;;;;;;;;;;;22.30;58.40;;;;;;5073087;28;19931;-59
2021/12/03 22:30:15;;;;;;;;;;;22.30;58.40;;;;;;5073073;28;19930;-59
2021/12/03 22:32:42;;;;;;;;;;;22.30;59.00;;;;;;5075225;28;19924;-58
2021/12/03 22:35:09;;;;;;;;;;;22.30;58.40;;;;;;5076609;28;19932;-57
2021/12/03 22:37:36;;;;;;;;;;;22.30;58.40;;;;;;5076907;28;19924;-54
2021/12/03 22:40:04;;;;;;;;;;;22.30;58.40;;;;;;5075986;28;19947;-57
2021/12/03 22:42:32;;;;;;;;;;;22.30;58.40;;;;;;5076954;28;19974;-59
2021/12/03 22:45:00;;;;;;;;;;;22.30;58.40;;;;;;5076756;28;19964;-55
2021/12/03 22:47:36;;;;;;;;;;;22.30;58.40;;;;;;5076399;28;19924;-55
2021/12/03 22:50:16;;;;;;;;;;;22.30;58.40;;;;;;5076704;28;19925;-59
2021/12/03 22:52:46;;;;;;;;;;;22.30;58.40;;;;;;5060601;28;19979;-59